createdAt,value
2022-11-28T00:01:59.174Z,3.02
2022-11-28T00:05:02.012Z,3.02
2022-11-28T00:08:04.745Z,3.01
2022-11-28T00:11:10.296Z,2.97
2022-11-28T00:14:13.333Z,2.99
2022-11-28T00:17:16.167Z,2.96
2022-11-28T00:20:18.846Z,2.97
2022-11-28T00:23:21.679Z,2.97
2022-11-28T00:26:26.899Z,2.97
2022-11-28T00:29:30.277Z,2.96
2022-11-28T00:32:32.876Z,2.99
2022-11-28T00:35:35.636Z,2.97
2022-11-28T00:38:38.596Z,2.92
2022-11-28T00:41:41.643Z,2.99
2022-11-28T00:44:44.432Z,3.00
2022-11-28T00:47:48.289Z,3.02
2022-11-28T00:50:51.433Z,3.05
2022-11-28T00:53:56.657Z,2.95
2022-11-28T00:56:59.207Z,3.06
2022-11-28T01:00:02.246Z,3.08
2022-11-28T01:03:05.377Z,3.09
2022-11-28T01:06:09.696Z,3.09
2022-11-28T01:09:19.081Z,3.03
2022-11-28T01:12:21.907Z,3.07
2022-11-28T01:15:24.540Z,3.09
2022-11-28T01:18:27.492Z,3.08
2022-11-28T01:21:30.171Z,3.09
2022-11-28T01:24:33.577Z,3.10
2022-11-28T01:27:36.044Z,3.10
2022-11-28T01:30:41.799Z,3.12
2022-11-28T01:33:44.847Z,3.10
2022-11-28T01:36:47.581Z,3.12
2022-11-28T01:39:50.078Z,3.13
2022-11-28T01:42:52.810Z,3.12
2022-11-28T01:45:55.790Z,3.15
2022-11-28T01:49:03.489Z,3.16
2022-11-28T01:52:12.115Z,3.17
2022-11-28T01:55:17.642Z,3.18
2022-11-28T01:58:20.191Z,3.16
2022-11-28T02:01:25.498Z,3.17
2022-11-28T02:04:28.436Z,3.16
2022-11-28T02:07:30.915Z,3.18
2022-11-28T02:10:54.342Z,3.09
2022-11-28T02:14:28.300Z,3.18
2022-11-28T02:18:01.436Z,3.15
2022-11-28T02:21:55.428Z,3.13
2022-11-28T02:25:21.004Z,3.11
2022-11-28T02:28:52.797Z,3.13
2022-11-28T02:32:13.848Z,3.13
2022-11-28T02:35:47.939Z,3.11
2022-11-28T02:39:15.622Z,3.12
2022-11-28T02:42:31.394Z,3.13
2022-11-28T02:45:58.482Z,3.12
2022-11-28T02:49:27.699Z,3.10
2022-11-28T02:52:36.549Z,3.09
2022-11-28T02:55:41.155Z,3.08
2022-11-28T02:58:44.069Z,3.08
2022-11-28T03:01:46.696Z,3.09
2022-11-28T03:04:49.476Z,3.09
2022-11-28T03:07:54.865Z,3.07
2022-11-28T03:11:11.871Z,3.08
2022-11-28T03:14:24.690Z,3.08
2022-11-28T03:17:27.465Z,3.06
2022-11-28T03:20:46.574Z,3.03
2022-11-28T03:23:53.358Z,3.03
2022-11-28T03:26:58.018Z,2.97
2022-11-28T03:30:06.769Z,3.05
2022-11-28T03:33:12.968Z,3.03
2022-11-28T03:36:21.573Z,3.02
2022-11-28T03:39:28.443Z,3.04
2022-11-28T03:42:35.132Z,3.05
2022-11-28T03:45:56.922Z,3.05
2022-11-28T03:49:00.909Z,3.04
2022-11-28T03:52:11.504Z,3.02
2022-11-28T03:55:19.407Z,3.00
2022-11-28T03:58:37.622Z,2.99
2022-11-28T04:01:47.653Z,2.98
2022-11-28T04:05:02.629Z,2.94
2022-11-28T04:08:14.570Z,2.89
2022-11-28T04:11:25.560Z,2.89
2022-11-28T04:14:35.091Z,2.86
2022-11-28T04:17:47.897Z,2.84
2022-11-28T04:20:58.373Z,2.83
2022-11-28T04:24:08.559Z,2.82
2022-11-28T04:27:14.374Z,2.81
2022-11-28T04:30:17.322Z,2.79
2022-11-28T04:33:22.281Z,2.80
2022-11-28T04:36:26.907Z,2.76
2022-11-28T04:39:30.860Z,2.74
2022-11-28T04:42:39.342Z,2.63
2022-11-28T04:45:50.150Z,2.70
2022-11-28T04:48:53.552Z,2.70
2022-11-28T04:52:35.446Z,2.65
2022-11-28T04:55:45.528Z,2.58
2022-11-28T04:58:50.500Z,2.59
2022-11-28T05:01:54.139Z,2.61
2022-11-28T05:04:58.290Z,2.60
2022-11-28T05:08:01.109Z,2.55
2022-11-28T05:11:04.742Z,2.39
2022-11-28T05:14:07.685Z,2.48
2022-11-28T05:17:12.762Z,2.50
2022-11-28T05:20:15.749Z,2.47
2022-11-28T05:23:18.238Z,2.39
2022-11-28T05:26:21.485Z,2.40
2022-11-28T05:29:25.448Z,2.39
2022-11-28T05:32:31.679Z,2.43
2022-11-28T05:35:34.193Z,2.40
2022-11-28T05:38:37.290Z,2.17
2022-11-28T05:41:40.189Z,2.45
2022-11-28T05:44:43.266Z,2.44
2022-11-28T05:47:45.858Z,2.44
2022-11-28T05:50:50.913Z,2.46
2022-11-28T05:53:54.002Z,2.46
2022-11-28T05:56:57.111Z,2.39
2022-11-28T05:59:59.711Z,2.41
2022-11-28T06:03:04.973Z,2.39
2022-11-28T06:06:15.893Z,3.62
2022-11-28T06:09:23.239Z,3.04
2022-11-28T06:12:28.313Z,2.82
2022-11-28T06:15:36.198Z,2.70
2022-11-28T06:18:40.922Z,2.62
2022-11-28T06:21:43.529Z,2.54
2022-11-28T06:24:46.361Z,2.54
2022-11-28T06:27:48.905Z,2.48
2022-11-28T06:30:52.084Z,2.51
2022-11-28T06:33:54.602Z,2.51
2022-11-28T06:36:57.384Z,2.51
2022-11-28T06:40:00.029Z,2.50
2022-11-28T06:43:02.843Z,2.48
2022-11-28T06:46:05.781Z,2.47
2022-11-28T06:49:11.271Z,2.46
2022-11-28T06:52:13.942Z,2.46
2022-11-28T06:55:17.716Z,2.47
2022-11-28T06:58:20.378Z,2.47
2022-11-28T07:01:26.856Z,2.47
2022-11-28T07:04:29.769Z,2.51
2022-11-28T07:07:32.605Z,2.54
2022-11-28T07:10:37.047Z,2.57
2022-11-28T07:13:40.976Z,2.55
2022-11-28T07:16:43.568Z,2.63
2022-11-28T07:19:50.529Z,2.65
2022-11-28T07:22:56.081Z,2.68
2022-11-28T07:26:00.305Z,2.71
2022-11-28T07:29:06.161Z,2.67
2022-11-28T07:32:09.164Z,2.71
2022-11-28T07:35:12.480Z,2.70
2022-11-28T07:38:15.381Z,2.70
2022-11-28T07:41:22.520Z,2.69
2022-11-28T07:44:27.965Z,2.69
2022-11-28T07:47:30.935Z,2.70
2022-11-28T07:50:34.835Z,2.63
2022-11-28T07:53:37.973Z,2.76
2022-11-28T07:57:10.774Z,2.76
2022-11-28T08:00:04.652Z,2.82
2022-11-28T08:03:15.094Z,2.76
2022-11-28T08:06:19.314Z,2.86
2022-11-28T08:09:22.152Z,2.83
2022-11-28T08:12:25.021Z,2.83
2022-11-28T08:15:31.661Z,2.76
2022-11-28T08:18:35.231Z,2.73
2022-11-28T08:21:38.263Z,2.70
2022-11-28T08:24:41.279Z,2.67
2022-11-28T08:27:43.902Z,2.67
2022-11-28T08:30:48.383Z,2.71
2022-11-28T08:33:52.739Z,2.78
2022-11-28T08:36:55.714Z,2.83
2022-11-28T08:39:58.278Z,2.88
2022-11-28T08:43:01.162Z,3.05
2022-11-28T08:46:10.688Z,3.13
2022-11-28T08:49:13.635Z,3.24
2022-11-28T08:52:16.609Z,3.23
2022-11-28T08:55:23.640Z,3.24
2022-11-28T08:58:33.119Z,3.17
2022-11-28T09:01:36.208Z,3.32
2022-11-28T09:04:39.060Z,3.13
2022-11-28T09:07:42.077Z,3.10
2022-11-28T09:10:46.101Z,3.03
2022-11-28T09:13:49.009Z,3.09
2022-11-28T09:16:51.606Z,3.10
2022-11-28T09:19:54.514Z,3.05
2022-11-28T09:22:57.100Z,3.09
2022-11-28T09:25:59.926Z,3.13
2022-11-28T09:29:02.722Z,3.03
2022-11-28T09:32:05.658Z,3.02
2022-11-28T09:35:08.668Z,3.03
2022-11-28T09:38:11.558Z,3.01
2022-11-28T09:41:20.103Z,2.99
2022-11-28T09:44:31.088Z,2.97
2022-11-28T09:47:35.209Z,2.92
2022-11-28T09:50:40.663Z,2.99
2022-11-28T09:53:50.989Z,3.02
2022-11-28T09:56:53.872Z,3.16
2022-11-28T09:59:56.523Z,3.17
2022-11-28T10:03:10.102Z,3.18
2022-11-28T10:06:21.233Z,3.19
2022-11-28T10:09:54.321Z,3.23
2022-11-28T10:13:15.536Z,3.29
2022-11-28T10:16:27.459Z,3.36
2022-11-28T10:19:54.322Z,3.34
2022-11-28T10:23:09.201Z,3.27
2022-11-28T10:26:33.169Z,3.18
2022-11-28T10:29:49.814Z,3.24
2022-11-28T10:33:00.350Z,3.26
2022-11-28T10:36:03.769Z,3.26
2022-11-28T10:39:12.212Z,3.33
2022-11-28T10:42:56.532Z,3.24
2022-11-28T10:46:17.679Z,3.13
2022-11-28T10:49:29.246Z,3.19
2022-11-28T10:52:51.893Z,3.13
2022-11-28T10:56:00.563Z,3.23
2022-11-28T10:59:44.349Z,3.24
2022-11-28T11:02:54.949Z,3.17
2022-11-28T11:05:57.810Z,3.23
2022-11-28T11:09:00.336Z,3.15
2022-11-28T11:12:04.886Z,3.21
2022-11-28T11:15:18.708Z,3.23
2022-11-28T11:18:22.807Z,3.20
2022-11-28T11:21:27.428Z,3.22
2022-11-28T11:24:30.805Z,3.20
2022-11-28T11:27:33.530Z,3.18
2022-11-28T11:30:38.839Z,3.25
2022-11-28T11:33:42.438Z,3.31
2022-11-28T11:36:45.374Z,3.28
2022-11-28T11:39:52.847Z,3.26
2022-11-28T11:42:58.326Z,3.39
2022-11-28T11:46:08.883Z,3.50
2022-11-28T11:49:29.317Z,3.52
2022-11-28T11:52:32.035Z,3.56
2022-11-28T11:55:43.641Z,3.55
2022-11-28T11:58:49.946Z,3.48
2022-11-28T12:02:01.950Z,3.41
2022-11-28T12:05:17.971Z,3.40
2022-11-28T12:08:34.116Z,3.44
2022-11-28T12:15:30.286Z,3.54
2022-11-28T12:19:06.670Z,3.54
2022-11-28T12:22:29.300Z,3.52
2022-11-28T12:25:54.568Z,3.48
2022-11-28T12:29:22.210Z,3.48
2022-11-28T12:32:49.519Z,3.52
2022-11-28T12:36:22.568Z,3.54
2022-11-28T12:39:43.472Z,3.49
2022-11-28T12:43:04.996Z,3.55
2022-11-28T12:46:23.558Z,3.49
2022-11-28T12:49:30.845Z,3.47
2022-11-28T12:52:44.906Z,3.48
2022-11-28T12:56:25.348Z,3.49
2022-11-28T12:59:49.458Z,3.43
2022-11-28T13:03:21.017Z,3.43
2022-11-28T13:06:47.531Z,3.48
2022-11-28T13:10:05.428Z,3.53
2022-11-28T13:13:30.149Z,3.56
2022-11-28T13:16:50.990Z,3.53
2022-11-28T13:20:32.954Z,4.05
2022-11-28T13:23:35.392Z,4.98
2022-11-28T13:26:47.541Z,4.22
2022-11-28T13:30:15.426Z,4.04
2022-11-28T13:33:27.379Z,3.81
2022-11-28T13:40:42.161Z,3.47
2022-11-28T13:44:31.625Z,3.31
2022-11-28T13:47:37.940Z,3.27
2022-11-28T13:50:41.328Z,3.13
2022-11-28T13:53:46.002Z,3.11
2022-11-28T13:57:04.008Z,3.02
2022-11-28T14:00:22.035Z,2.94
2022-11-28T14:03:26.164Z,2.96
2022-11-28T14:06:31.086Z,2.92
2022-11-28T14:09:44.748Z,2.87
2022-11-28T14:13:05.801Z,2.82
2022-11-28T14:16:37.849Z,2.82
2022-11-28T14:19:49.104Z,2.81
2022-11-28T14:23:15.889Z,2.81
2022-11-28T14:26:34.205Z,2.80
2022-11-28T14:29:40.710Z,2.75
2022-11-28T14:32:43.738Z,2.71
2022-11-28T14:36:05.858Z,2.69
2022-11-28T14:39:12.148Z,2.66
2022-11-28T14:42:30.597Z,2.63
2022-11-28T14:45:43.058Z,2.61
2022-11-28T14:48:58.276Z,2.52
2022-11-28T14:52:41.777Z,2.47
2022-11-28T14:55:44.882Z,2.38
2022-11-28T14:58:48.541Z,2.29
2022-11-28T15:02:01.361Z,2.24
2022-11-28T15:05:13.178Z,2.25
2022-11-28T15:08:29.563Z,2.21
2022-11-28T15:11:47.115Z,2.16
2022-11-28T15:14:53.498Z,2.12
2022-11-28T15:17:56.531Z,2.04
2022-11-28T15:21:05.424Z,2.04
2022-11-28T15:24:30.445Z,2.02
2022-11-28T15:27:33.282Z,2.02
2022-11-28T15:30:44.325Z,1.97
2022-11-28T15:33:48.191Z,1.91
2022-11-28T15:36:52.741Z,1.76
2022-11-28T15:39:55.709Z,1.75
2022-11-28T15:43:00.135Z,1.65
2022-11-28T15:46:03.308Z,1.66
2022-11-28T15:49:07.235Z,1.61
2022-11-28T15:52:18.330Z,1.63
2022-11-28T15:55:21.255Z,1.55
2022-11-28T15:58:31.696Z,1.51
2022-11-28T16:01:35.157Z,1.52
2022-11-28T16:04:38.537Z,1.49
2022-11-28T16:07:44.958Z,1.44
2022-11-28T16:10:48.377Z,1.45
2022-11-28T16:13:52.441Z,1.47
2022-11-28T16:16:57.151Z,1.47
2022-11-28T16:20:01.057Z,1.40
2022-11-28T16:23:18.606Z,1.40
2022-11-28T16:26:31.177Z,1.40
2022-11-28T16:29:36.264Z,1.37
2022-11-28T16:32:40.327Z,1.26
2022-11-28T16:35:43.332Z,1.33
2022-11-28T16:38:47.256Z,1.31
2022-11-28T16:42:07.896Z,1.27
2022-11-28T16:45:19.272Z,1.26
2022-11-28T16:48:26.901Z,1.15
2022-11-28T16:51:35.240Z,1.15
2022-11-28T16:54:38.032Z,1.07
2022-11-28T16:57:47.169Z,1.02
2022-11-28T17:01:08.283Z,0.94
2022-11-28T17:04:30.890Z,0.89
2022-11-28T17:07:33.736Z,0.86
2022-11-28T17:10:36.307Z,0.83
2022-11-28T17:13:39.287Z,0.80
2022-11-28T17:16:42.725Z,0.73
2022-11-28T17:19:46.588Z,0.72
2022-11-28T17:22:51.113Z,0.68
2022-11-28T17:25:54.054Z,0.61
2022-11-28T17:28:58.983Z,0.57
2022-11-28T17:32:02.425Z,0.58
2022-11-28T17:35:16.055Z,0.55
2022-11-28T17:38:20.324Z,0.49
2022-11-28T17:41:23.418Z,0.48
2022-11-28T17:44:29.116Z,0.38
2022-11-28T17:47:31.818Z,0.26
2022-11-28T17:50:34.855Z,0.17
2022-11-28T17:53:37.710Z,0.13
2022-11-28T17:56:40.876Z,0.09
2022-11-28T17:59:44.515Z,0.13
2022-11-28T18:02:48.138Z,0.14
2022-11-28T18:05:51.701Z,0.11
2022-11-28T18:08:54.601Z,0.12
2022-11-28T18:11:57.881Z,0.14
2022-11-28T18:15:02.496Z,0.19
2022-11-28T18:18:06.622Z,0.15
2022-11-28T18:21:10.703Z,0.15
2022-11-28T18:24:14.051Z,0.24
2022-11-28T18:27:16.945Z,0.27
2022-11-28T18:30:20.333Z,0.26
2022-11-28T18:33:23.268Z,0.31
2022-11-28T18:36:27.589Z,0.30
2022-11-28T18:39:31.348Z,0.33
2022-11-28T18:42:34.648Z,0.37
2022-11-28T18:45:40.941Z,0.40
2022-11-28T18:48:45.412Z,0.42
2022-11-28T18:51:48.547Z,0.38
2022-11-28T18:54:51.274Z,0.46
2022-11-28T18:57:53.825Z,0.44
2022-11-28T19:00:57.095Z,0.45
2022-11-28T19:04:08.240Z,0.49
2022-11-28T19:07:12.145Z,0.47
2022-11-28T19:10:14.786Z,0.47
2022-11-28T19:13:19.819Z,0.51
2022-11-28T19:16:27.960Z,0.48
2022-11-28T19:19:31.513Z,0.47
2022-11-28T19:22:36.013Z,0.49
2022-11-28T19:25:39.883Z,0.47
2022-11-28T19:28:42.868Z,0.50
2022-11-28T19:31:46.087Z,0.52
2022-11-28T19:34:52.296Z,0.49
2022-11-28T19:37:55.585Z,0.53
2022-11-28T19:40:58.996Z,0.55
2022-11-28T19:44:02.339Z,0.57
2022-11-28T19:47:06.837Z,0.50
2022-11-28T19:50:10.645Z,0.60
2022-11-28T19:53:13.520Z,0.56
2022-11-28T19:56:20.000Z,0.55
2022-11-28T19:59:22.718Z,0.54
2022-11-28T20:02:25.805Z,0.63
2022-11-28T20:05:30.973Z,0.63
2022-11-28T20:08:34.213Z,0.67
2022-11-28T20:11:39.369Z,0.70
2022-11-28T20:14:42.116Z,0.67
2022-11-28T20:17:45.633Z,0.65
2022-11-28T20:20:48.594Z,0.68
2022-11-28T20:23:54.183Z,0.72
2022-11-28T20:26:57.407Z,0.68
2022-11-28T20:30:05.983Z,0.64
2022-11-28T20:33:09.076Z,0.68
2022-11-28T20:36:18.269Z,0.68
2022-11-28T20:39:22.137Z,0.72
2022-11-28T20:42:25.262Z,0.71
2022-11-28T20:45:27.836Z,0.71
2022-11-28T20:48:30.887Z,0.72
2022-11-28T20:51:35.148Z,0.76
2022-11-28T20:54:38.247Z,0.70
2022-11-28T20:57:41.178Z,0.61
2022-11-28T21:00:46.166Z,0.63
2022-11-28T21:03:49.208Z,0.65
2022-11-28T21:06:52.422Z,0.67
2022-11-28T21:09:59.855Z,0.73
2022-11-28T21:13:02.683Z,0.72
2022-11-28T21:16:10.790Z,0.75
2022-11-28T21:19:14.204Z,0.77
2022-11-28T21:22:17.030Z,0.74
2022-11-28T21:25:20.540Z,0.73
2022-11-28T21:28:23.147Z,0.73
2022-11-28T21:31:28.134Z,0.73
2022-11-28T21:34:30.685Z,0.70
2022-11-28T21:37:34.100Z,0.72
2022-11-28T21:40:36.606Z,0.65
2022-11-28T21:43:39.527Z,0.64
2022-11-28T21:46:42.158Z,0.68
2022-11-28T21:49:45.189Z,0.67
2022-11-28T21:52:48.329Z,0.64
2022-11-28T21:55:51.465Z,0.63
2022-11-28T21:58:54.730Z,0.60
2022-11-28T22:01:59.910Z,0.63
2022-11-28T22:05:03.367Z,0.64
2022-11-28T22:08:06.017Z,0.64
2022-11-28T22:11:11.332Z,0.58
2022-11-28T22:14:14.175Z,0.63
2022-11-28T22:17:17.290Z,0.63
2022-11-28T22:20:20.279Z,0.57
2022-11-28T22:23:23.210Z,0.55
2022-11-28T22:26:26.021Z,0.52
2022-11-28T22:29:29.169Z,0.53
2022-11-28T22:32:31.771Z,0.46
2022-11-28T22:35:34.559Z,0.44
2022-11-28T22:38:38.592Z,0.43
2022-11-28T22:41:42.330Z,0.44
2022-11-28T22:44:45.294Z,0.41
2022-11-28T22:47:50.000Z,0.46
2022-11-28T22:50:52.678Z,0.42
2022-11-28T22:53:57.030Z,0.41
2022-11-28T22:57:00.474Z,0.27
2022-11-28T23:00:06.645Z,0.35
2022-11-28T23:03:09.373Z,0.37
2022-11-28T23:06:14.928Z,0.35
2022-11-28T23:09:18.534Z,0.36
2022-11-28T23:12:21.357Z,0.37
2022-11-28T23:15:23.990Z,0.28
2022-11-28T23:18:27.398Z,0.23
2022-11-28T23:21:32.676Z,0.19
2022-11-28T23:24:35.619Z,0.24
2022-11-28T23:27:38.851Z,0.24
2022-11-28T23:30:42.850Z,0.25
2022-11-28T23:33:45.926Z,0.22
2022-11-28T23:36:49.504Z,0.20
2022-11-28T23:39:52.438Z,0.13
2022-11-28T23:42:55.402Z,0.10
2022-11-28T23:45:58.511Z,0.06
2022-11-28T23:49:01.478Z,0.11
2022-11-28T23:52:04.132Z,0.02
2022-11-28T23:55:07.241Z,0.04
2022-11-28T23:58:09.793Z,0.03
